createdAt,value
2022-11-29T00:01:44.510Z,-20.31
2022-11-29T00:04:13.428Z,-20.32
2022-11-29T00:06:42.846Z,-20.30
2022-11-29T00:09:13.686Z,-20.34
2022-11-29T00:12:01.511Z,-20.24
2022-11-29T00:14:30.836Z,-20.31
2022-11-29T00:17:04.980Z,-20.31
2022-11-29T00:19:36.174Z,-20.33
2022-11-29T00:22:04.986Z,-20.34
2022-11-29T00:24:33.795Z,-20.34
2022-11-29T00:27:02.626Z,-20.33
2022-11-29T00:29:31.674Z,-20.38
2022-11-29T00:32:01.044Z,-20.36
2022-11-29T00:34:30.680Z,-20.32
2022-11-29T00:36:59.498Z,-20.37
2022-11-29T00:39:28.248Z,-20.39
2022-11-29T00:41:57.053Z,-20.35
2022-11-29T00:44:26.615Z,-20.33
2022-11-29T00:46:55.486Z,-20.31
2022-11-29T00:49:24.271Z,-20.32
2022-11-29T00:51:53.120Z,-20.26
2022-11-29T00:54:21.958Z,-20.30
2022-11-29T00:56:50.768Z,-20.34
2022-11-29T00:59:19.934Z,-20.31
2022-11-29T01:01:50.409Z,-20.31
2022-11-29T01:04:20.191Z,-20.33
2022-11-29T01:06:53.871Z,-20.38
2022-11-29T01:09:22.695Z,-20.36
2022-11-29T01:11:51.613Z,-20.38
2022-11-29T01:14:20.442Z,-20.31
2022-11-29T01:16:49.294Z,-20.37
2022-11-29T01:19:18.072Z,-20.34
2022-11-29T01:21:46.835Z,-20.35
2022-11-29T01:24:15.716Z,-20.31
2022-11-29T01:26:45.214Z,-20.34
2022-11-29T01:29:15.956Z,-20.36
2022-11-29T01:31:45.030Z,-20.34
2022-11-29T01:34:14.910Z,-20.28
2022-11-29T01:36:44.831Z,-20.27
2022-11-29T01:39:13.957Z,-20.29
2022-11-29T01:41:42.755Z,-20.32
2022-11-29T01:44:15.377Z,-20.25
2022-11-29T01:46:46.958Z,-20.20
2022-11-29T01:49:20.719Z,-20.27
2022-11-29T01:52:05.738Z,-20.19
2022-11-29T01:54:43.342Z,-20.15
2022-11-29T01:57:13.574Z,-20.17
2022-11-29T01:59:47.293Z,-20.12
2022-11-29T02:02:21.955Z,-20.13
2022-11-29T02:04:51.326Z,-20.12
2022-11-29T02:07:20.191Z,-20.05
2022-11-29T02:09:49.067Z,-20.03
2022-11-29T02:12:32.889Z,-20.01
2022-11-29T02:15:08.656Z,-19.95
2022-11-29T02:18:03.970Z,-19.95
2022-11-29T02:20:50.771Z,-19.93
2022-11-29T02:23:57.190Z,-19.82
2022-11-29T02:26:40.967Z,-19.77
2022-11-29T02:29:32.901Z,-19.75
2022-11-29T02:32:25.139Z,-19.73
2022-11-29T02:34:59.563Z,-19.68
2022-11-29T02:37:56.073Z,-19.66
2022-11-29T02:40:40.424Z,-19.66
2022-11-29T02:43:53.846Z,-19.61
2022-11-29T02:46:46.398Z,-19.63
2022-11-29T02:49:36.777Z,-19.57
2022-11-29T02:52:13.909Z,-19.55
2022-11-29T02:55:13.960Z,-19.61
2022-11-29T02:58:14.512Z,-19.54
2022-11-29T03:01:09.957Z,-19.55
2022-11-29T03:03:50.385Z,-19.52
2022-11-29T03:06:34.753Z,-19.43
2022-11-29T03:09:10.098Z,-19.42
2022-11-29T03:11:51.591Z,-19.37
2022-11-29T03:14:55.405Z,-19.32
2022-11-29T03:17:30.010Z,-19.28
2022-11-29T03:20:14.218Z,-19.27
2022-11-29T03:23:15.874Z,-19.24
2022-11-29T03:25:52.644Z,-19.19
2022-11-29T03:28:24.758Z,-19.13
2022-11-29T03:31:02.032Z,-19.02
2022-11-29T03:33:42.266Z,-19.01
2022-11-29T03:36:19.858Z,-18.99
2022-11-29T03:38:48.943Z,-18.90
2022-11-29T03:41:25.925Z,-18.80
2022-11-29T03:44:01.088Z,-18.71
2022-11-29T03:46:53.387Z,-18.69
2022-11-29T03:49:54.918Z,-18.76
2022-11-29T03:52:45.056Z,-18.79
2022-11-29T03:55:22.715Z,-18.76
2022-11-29T03:58:00.181Z,-18.74
2022-11-29T04:00:46.048Z,-18.78
2022-11-29T04:03:45.524Z,-18.74
2022-11-29T04:06:53.604Z,-18.70
2022-11-29T04:09:43.968Z,-18.66
2022-11-29T04:12:34.003Z,-18.71
2022-11-29T04:15:20.727Z,-18.68
2022-11-29T04:18:30.773Z,-18.77
2022-11-29T04:21:14.608Z,-18.58
2022-11-29T04:23:49.261Z,-18.55
2022-11-29T04:26:35.002Z,-18.52
2022-11-29T04:29:22.330Z,-18.43
2022-11-29T04:32:35.892Z,-18.35
2022-11-29T04:35:22.886Z,-18.37
2022-11-29T04:38:20.758Z,-18.37
2022-11-29T04:41:01.397Z,-18.33
2022-11-29T04:43:58.260Z,-18.25
2022-11-29T04:46:51.774Z,-18.24
2022-11-29T04:49:54.332Z,-18.23
2022-11-29T04:52:29.272Z,-18.18
2022-11-29T04:55:03.584Z,-18.18
2022-11-29T04:57:56.917Z,-18.26
2022-11-29T05:00:27.037Z,-18.21
2022-11-29T05:03:02.554Z,-18.15
2022-11-29T05:05:49.573Z,-18.14
2022-11-29T05:08:27.446Z,-18.15
2022-11-29T05:11:04.957Z,-18.15
2022-11-29T05:13:46.555Z,-18.00
2022-11-29T05:16:49.727Z,-17.93
2022-11-29T05:19:40.844Z,-17.90
2022-11-29T05:22:22.023Z,-17.79
2022-11-29T05:25:22.108Z,-17.71
2022-11-29T05:28:25.245Z,-17.64
2022-11-29T05:31:22.353Z,-17.53
2022-11-29T05:34:23.992Z,-17.58
2022-11-29T05:37:14.559Z,-17.64
2022-11-29T05:39:45.999Z,-17.73
2022-11-29T05:42:45.279Z,-17.75
2022-11-29T05:45:25.827Z,-17.73
2022-11-29T05:48:08.075Z,-17.76
2022-11-29T05:50:48.758Z,-17.77
2022-11-29T05:53:34.936Z,-17.69
2022-11-29T05:56:11.379Z,-17.70
2022-11-29T05:59:20.977Z,-17.72
2022-11-29T06:02:15.116Z,-17.66
2022-11-29T06:05:07.139Z,-17.69
2022-11-29T06:07:45.835Z,-17.63
2022-11-29T06:10:20.399Z,-17.68
2022-11-29T06:13:24.543Z,-17.65
2022-11-29T06:16:14.931Z,-17.66
2022-11-29T06:19:17.638Z,-17.55
2022-11-29T06:22:17.585Z,-17.58
2022-11-29T06:24:47.501Z,-17.61
2022-11-29T06:27:51.248Z,-17.58
2022-11-29T06:30:33.256Z,-17.54
2022-11-29T06:33:22.037Z,-17.53
2022-11-29T06:36:10.656Z,-17.45
2022-11-29T06:38:39.795Z,-17.57
2022-11-29T06:41:17.065Z,-17.54
2022-11-29T06:43:46.694Z,-17.58
2022-11-29T06:46:21.948Z,-17.57
2022-11-29T06:49:01.947Z,-17.58
2022-11-29T06:51:56.121Z,-17.60
2022-11-29T06:54:43.784Z,-17.64
2022-11-29T06:57:27.753Z,-17.78
2022-11-29T07:00:21.100Z,-17.86
2022-11-29T07:02:55.963Z,-17.84
2022-11-29T07:05:35.996Z,-17.78
2022-11-29T07:08:26.862Z,-17.78
2022-11-29T07:10:56.672Z,-17.77
2022-11-29T07:13:25.830Z,-17.78
2022-11-29T07:16:17.295Z,-17.80
2022-11-29T07:19:04.426Z,-17.80
2022-11-29T07:21:47.231Z,-17.83
2022-11-29T07:24:35.114Z,-17.88
2022-11-29T07:27:11.212Z,-17.86
2022-11-29T07:30:03.759Z,-17.85
2022-11-29T07:32:33.979Z,-17.88
2022-11-29T07:35:20.012Z,-17.97
2022-11-29T07:38:10.626Z,-17.95
2022-11-29T07:41:17.207Z,-17.96
2022-11-29T07:43:57.793Z,-18.01
2022-11-29T07:46:30.027Z,-18.12
2022-11-29T07:48:59.017Z,-18.09
2022-11-29T07:51:27.854Z,-18.09
2022-11-29T07:53:58.340Z,-18.10
2022-11-29T07:56:27.915Z,-18.06
2022-11-29T07:58:56.828Z,-18.09
2022-11-29T08:01:26.646Z,-18.05
2022-11-29T08:03:56.022Z,-18.02
2022-11-29T08:06:26.700Z,-18.11
2022-11-29T08:08:58.736Z,-18.10
2022-11-29T08:11:28.576Z,-18.10
2022-11-29T08:14:01.042Z,-18.15
2022-11-29T08:16:30.983Z,-18.16
2022-11-29T08:19:00.042Z,-18.20
2022-11-29T08:21:28.919Z,-18.21
2022-11-29T08:23:57.813Z,-18.16
2022-11-29T08:26:31.199Z,-18.22
2022-11-29T08:29:00.625Z,-18.22
2022-11-29T08:31:29.444Z,-18.21
2022-11-29T08:33:58.297Z,-18.24
2022-11-29T08:36:27.171Z,-18.25
2022-11-29T08:39:03.452Z,-18.23
2022-11-29T08:41:34.962Z,-18.31
2022-11-29T08:44:06.035Z,-18.31
2022-11-29T08:46:53.830Z,-18.32
2022-11-29T08:49:22.721Z,-18.31
2022-11-29T08:52:14.585Z,-18.30
2022-11-29T08:54:44.321Z,-18.36
2022-11-29T09:00:02.682Z,-18.39
2022-11-29T09:02:34.870Z,-18.40
2022-11-29T09:05:04.443Z,-18.40
2022-11-29T09:07:34.374Z,-18.39
2022-11-29T09:10:06.010Z,-18.33
2022-11-29T09:12:39.598Z,-18.36
2022-11-29T09:15:10.735Z,-18.39
2022-11-29T09:17:39.712Z,-18.41
2022-11-29T09:20:09.498Z,-18.39
2022-11-29T09:22:38.404Z,-18.38
2022-11-29T09:25:07.685Z,-18.40
2022-11-29T09:27:36.560Z,-18.40
2022-11-29T09:30:06.732Z,-18.39
2022-11-29T09:32:36.563Z,-18.34
2022-11-29T09:35:05.598Z,-18.38
2022-11-29T09:37:35.654Z,-18.33
2022-11-29T09:40:06.373Z,-18.37
2022-11-29T09:42:53.883Z,-18.29
2022-11-29T09:45:31.045Z,-18.33
2022-11-29T09:48:21.870Z,-18.32
2022-11-29T09:51:24.970Z,-18.33
2022-11-29T09:54:12.050Z,-18.30
2022-11-29T09:56:51.560Z,-18.34
2022-11-29T09:59:33.232Z,-18.31
2022-11-29T10:02:23.682Z,-18.30
2022-11-29T10:05:03.616Z,-18.28
2022-11-29T10:07:46.976Z,-18.29
2022-11-29T10:10:28.395Z,-18.33
2022-11-29T10:13:16.587Z,-18.30
2022-11-29T10:15:51.659Z,-18.30
2022-11-29T10:18:31.867Z,-18.27
2022-11-29T10:21:13.346Z,-18.29
2022-11-29T10:23:49.690Z,-18.24
2022-11-29T10:26:18.772Z,-18.26
2022-11-29T10:28:49.939Z,-18.24
2022-11-29T10:31:27.364Z,-18.22
2022-11-29T10:34:00.409Z,-18.21
2022-11-29T10:36:43.056Z,-18.24
2022-11-29T10:39:27.506Z,-18.27
2022-11-29T10:42:00.877Z,-18.29
2022-11-29T10:44:32.353Z,-18.28
2022-11-29T10:47:10.532Z,-18.25
2022-11-29T10:49:41.180Z,-18.26
2022-11-29T10:52:21.085Z,-18.29
2022-11-29T10:54:51.729Z,-18.28
2022-11-29T10:57:23.503Z,-18.30
2022-11-29T11:00:05.171Z,-18.33
2022-11-29T11:02:35.813Z,-18.30
2022-11-29T11:05:13.888Z,-18.34
2022-11-29T11:07:42.820Z,-18.35
2022-11-29T11:10:38.125Z,-18.37
2022-11-29T11:13:22.365Z,-18.38
2022-11-29T11:16:09.782Z,-18.39
2022-11-29T11:18:39.335Z,-18.45
2022-11-29T11:21:17.648Z,-18.47
2022-11-29T11:24:22.039Z,-18.47
2022-11-29T11:26:51.087Z,-18.46
2022-11-29T11:29:25.385Z,-18.46
2022-11-29T11:31:56.932Z,-18.39
2022-11-29T11:34:37.460Z,-18.40
2022-11-29T11:37:15.526Z,-18.47
2022-11-29T11:39:47.160Z,-18.47
2022-11-29T11:42:38.347Z,-18.44
2022-11-29T11:45:13.392Z,-18.50
2022-11-29T11:47:53.993Z,-18.46
2022-11-29T11:50:51.022Z,-18.46
2022-11-29T11:53:36.552Z,-18.55
2022-11-29T11:56:12.362Z,-18.50
2022-11-29T11:59:01.587Z,-18.50
2022-11-29T12:01:38.755Z,-18.59
2022-11-29T12:04:15.974Z,-18.59
2022-11-29T12:07:04.840Z,-18.57
2022-11-29T12:09:49.744Z,-18.55
2022-11-29T12:12:32.613Z,-18.57
2022-11-29T12:15:11.451Z,-18.60
2022-11-29T12:17:49.172Z,-18.62
2022-11-29T12:20:30.039Z,-18.56
2022-11-29T12:23:14.065Z,-18.58
2022-11-29T12:26:04.987Z,-18.61
2022-11-29T12:28:39.551Z,-18.61
2022-11-29T12:31:44.849Z,-18.60
2022-11-29T12:34:35.670Z,-18.61
2022-11-29T12:37:16.411Z,-18.58
2022-11-29T12:40:09.643Z,-18.60
2022-11-29T12:42:50.748Z,-18.61
2022-11-29T12:45:35.784Z,-18.62
2022-11-29T12:48:39.064Z,-18.57
2022-11-29T12:51:28.580Z,-18.61
2022-11-29T12:54:22.417Z,-18.62
2022-11-29T12:57:17.475Z,-18.60
2022-11-29T13:00:05.270Z,-18.64
2022-11-29T13:03:14.320Z,-18.62
2022-11-29T13:06:08.335Z,-18.64
2022-11-29T13:08:38.352Z,-18.67
2022-11-29T13:11:16.016Z,-18.76
2022-11-29T13:13:47.889Z,-18.68
2022-11-29T13:16:32.866Z,-18.69
2022-11-29T13:19:34.456Z,-18.63
2022-11-29T13:22:17.928Z,-18.65
2022-11-29T13:24:55.654Z,-18.63
2022-11-29T13:27:40.790Z,-18.63
2022-11-29T13:30:15.730Z,-18.62
2022-11-29T13:33:26.489Z,-18.62
2022-11-29T13:36:08.260Z,-18.59
2022-11-29T13:38:41.498Z,-18.63
2022-11-29T13:41:14.059Z,-18.57
2022-11-29T13:44:11.381Z,-18.53
2022-11-29T13:46:40.332Z,-18.51
2022-11-29T13:49:23.515Z,-18.54
2022-11-29T13:52:06.475Z,-18.55
2022-11-29T13:54:35.562Z,-18.52
2022-11-29T13:57:08.689Z,-18.49
2022-11-29T13:59:47.088Z,-18.51
2022-11-29T14:02:31.394Z,-18.57
2022-11-29T14:05:01.975Z,-18.63
2022-11-29T14:07:33.792Z,-18.49
2022-11-29T14:10:28.451Z,-18.45
2022-11-29T14:13:00.480Z,-18.42
2022-11-29T14:15:34.237Z,-18.39
2022-11-29T14:18:08.809Z,-18.43
2022-11-29T14:20:44.630Z,-18.43
2022-11-29T14:23:13.661Z,-18.42
2022-11-29T14:25:57.695Z,-18.41
2022-11-29T14:28:42.250Z,-18.46
2022-11-29T14:31:11.474Z,-18.47
2022-11-29T14:34:16.825Z,-18.38
2022-11-29T14:36:54.740Z,-18.40
2022-11-29T14:39:45.609Z,-18.38
2022-11-29T14:42:21.087Z,-18.41
2022-11-29T14:45:01.455Z,-18.39
2022-11-29T14:47:47.915Z,-18.43
2022-11-29T14:50:40.382Z,-18.41
2022-11-29T14:53:31.105Z,-18.42
2022-11-29T14:56:50.001Z,-18.45
2022-11-29T14:59:40.403Z,-18.49
2022-11-29T15:02:35.662Z,-18.45
2022-11-29T15:05:25.120Z,-18.55
2022-11-29T15:08:15.053Z,-18.51
2022-11-29T15:11:02.064Z,-18.56
2022-11-29T15:13:36.515Z,-18.59
2022-11-29T15:16:24.104Z,-18.57
2022-11-29T15:19:17.295Z,-18.58
2022-11-29T15:22:14.289Z,-18.58
2022-11-29T15:25:02.953Z,-18.56
2022-11-29T15:27:35.161Z,-18.56
2022-11-29T15:30:34.444Z,-18.56
2022-11-29T15:33:05.470Z,-18.57
2022-11-29T15:35:36.074Z,-18.57
2022-11-29T15:38:05.114Z,-18.58
2022-11-29T15:40:39.451Z,-18.57
2022-11-29T15:43:32.089Z,-18.57
2022-11-29T15:46:01.837Z,-18.59
2022-11-29T15:48:33.382Z,-18.54
2022-11-29T15:51:21.108Z,-18.52
2022-11-29T15:54:15.564Z,-18.53
2022-11-29T15:56:49.642Z,-18.49
2022-11-29T15:59:42.147Z,-18.47
2022-11-29T16:02:29.488Z,-18.47
2022-11-29T16:05:28.876Z,-18.48
2022-11-29T16:08:14.927Z,-18.46
2022-11-29T16:10:50.121Z,-18.42
2022-11-29T16:13:41.488Z,-18.43
2022-11-29T16:16:23.119Z,-18.45
2022-11-29T16:18:52.355Z,-18.51
2022-11-29T16:21:29.813Z,-18.47
2022-11-29T16:23:59.666Z,-18.42
2022-11-29T16:26:40.218Z,-18.39
2022-11-29T16:29:26.033Z,-18.35
2022-11-29T16:31:56.082Z,-18.33
2022-11-29T16:34:35.036Z,-18.29
2022-11-29T16:37:15.401Z,-18.34
2022-11-29T16:39:49.065Z,-18.32
2022-11-29T16:42:28.739Z,-18.30
2022-11-29T16:45:35.398Z,-18.28
2022-11-29T16:48:27.462Z,-18.30
2022-11-29T16:51:14.002Z,-18.29
2022-11-29T16:53:44.029Z,-18.33
2022-11-29T16:56:14.816Z,-18.39
2022-11-29T16:59:25.421Z,-18.38
2022-11-29T17:01:35.786Z,-18.34
2022-11-29T17:04:05.061Z,-18.32
2022-11-29T17:06:35.411Z,-18.33
2022-11-29T17:09:05.699Z,-18.30
2022-11-29T17:11:34.554Z,-18.30
2022-11-29T17:14:03.555Z,-18.29
2022-11-29T17:16:32.575Z,-18.25
2022-11-29T17:19:01.928Z,-18.26
2022-11-29T17:21:31.973Z,-18.25
2022-11-29T17:24:00.830Z,-18.28
2022-11-29T17:26:29.930Z,-18.25
2022-11-29T17:28:59.163Z,-18.28
2022-11-29T17:31:28.305Z,-18.24
2022-11-29T17:33:57.284Z,-18.22
2022-11-29T17:36:26.225Z,-18.21
2022-11-29T17:38:55.556Z,-18.24
2022-11-29T17:41:25.390Z,-18.28
2022-11-29T17:43:55.547Z,-18.19
2022-11-29T17:46:26.762Z,-18.20
2022-11-29T17:48:57.407Z,-18.17
2022-11-29T17:54:15.181Z,-18.17
2022-11-29T17:56:44.073Z,-18.21
2022-11-29T17:59:12.912Z,-18.13
2022-11-29T18:01:42.859Z,-18.19
2022-11-29T18:04:12.095Z,-18.17
2022-11-29T18:06:42.015Z,-18.18
2022-11-29T18:09:12.904Z,-18.18
2022-11-29T18:11:48.955Z,-18.21
2022-11-29T18:14:23.587Z,-18.19
2022-11-29T18:16:53.132Z,-18.25
2022-11-29T18:19:24.462Z,-18.25
2022-11-29T18:21:53.362Z,-18.24
2022-11-29T18:24:22.205Z,-18.26
2022-11-29T18:26:51.898Z,-18.25
2022-11-29T18:29:21.320Z,-18.26
2022-11-29T18:31:50.247Z,-18.16
2022-11-29T18:34:19.121Z,-18.22
2022-11-29T18:36:49.462Z,-18.18
2022-11-29T18:39:20.784Z,-18.15
2022-11-29T18:41:51.237Z,-18.16
2022-11-29T18:44:30.355Z,-18.14
2022-11-29T18:46:59.384Z,-18.18
2022-11-29T18:49:29.094Z,-18.17
2022-11-29T18:51:57.962Z,-18.13
2022-11-29T18:54:27.229Z,-18.23
2022-11-29T18:56:56.093Z,-18.15
2022-11-29T18:59:25.780Z,-18.16
2022-11-29T19:01:55.165Z,-18.19
2022-11-29T19:04:24.338Z,-18.25
2022-11-29T19:06:53.184Z,-18.22
2022-11-29T19:09:23.030Z,-18.19
2022-11-29T19:11:52.198Z,-18.19
2022-11-29T19:14:21.252Z,-18.17
2022-11-29T19:16:51.271Z,-18.21
2022-11-29T19:19:20.367Z,-18.21
2022-11-29T19:21:50.115Z,-18.21
2022-11-29T19:24:19.658Z,-18.24
2022-11-29T19:26:50.344Z,-18.27
2022-11-29T19:29:19.356Z,-18.26
2022-11-29T19:31:48.531Z,-18.26
2022-11-29T19:34:17.935Z,-18.23
2022-11-29T19:36:46.848Z,-18.29
2022-11-29T19:39:17.964Z,-18.26
2022-11-29T19:41:48.566Z,-18.23
2022-11-29T19:44:17.347Z,-18.28
2022-11-29T19:46:49.100Z,-18.24
2022-11-29T19:49:20.155Z,-18.24
2022-11-29T19:51:49.136Z,-18.23
2022-11-29T19:54:17.967Z,-18.23
2022-11-29T19:56:46.901Z,-18.22
2022-11-29T19:59:16.228Z,-18.23
2022-11-29T20:01:45.571Z,-18.25
2022-11-29T20:04:17.295Z,-18.25
2022-11-29T20:06:48.153Z,-18.25
2022-11-29T20:09:17.185Z,-18.27
2022-11-29T20:11:46.859Z,-18.28
2022-11-29T20:14:17.903Z,-18.30
2022-11-29T20:16:46.784Z,-18.25
2022-11-29T20:19:17.530Z,-18.22
2022-11-29T20:21:49.317Z,-18.24
2022-11-29T20:24:20.213Z,-18.25
2022-11-29T20:26:50.272Z,-18.27
2022-11-29T20:29:19.940Z,-18.28
2022-11-29T20:31:50.948Z,-18.35
2022-11-29T20:34:21.318Z,-18.35
2022-11-29T20:36:59.430Z,-18.39
2022-11-29T20:39:41.209Z,-18.46
2022-11-29T20:42:23.125Z,-18.50
2022-11-29T20:44:56.208Z,-18.56
2022-11-29T20:47:27.587Z,-18.52
2022-11-29T20:49:57.767Z,-18.52
2022-11-29T20:52:38.176Z,-18.59
2022-11-29T20:55:07.430Z,-18.63
2022-11-29T20:57:38.874Z,-18.65
2022-11-29T21:00:14.603Z,-18.67
2022-11-29T21:02:43.795Z,-18.63
2022-11-29T21:05:13.173Z,-18.62
2022-11-29T21:07:42.213Z,-18.62
2022-11-29T21:10:11.429Z,-18.59
2022-11-29T21:12:42.283Z,-18.63
2022-11-29T21:15:13.349Z,-18.59
2022-11-29T21:17:43.456Z,-18.65
2022-11-29T21:20:38.443Z,-18.54
2022-11-29T21:23:23.564Z,-18.57
2022-11-29T21:26:30.861Z,-18.51
2022-11-29T21:29:16.001Z,-18.50
2022-11-29T21:31:46.299Z,-18.50
2022-11-29T21:34:15.172Z,-18.52
2022-11-29T21:36:45.425Z,-18.53
2022-11-29T21:39:18.088Z,-18.49
2022-11-29T21:41:48.978Z,-18.44
2022-11-29T21:44:18.258Z,-18.44
2022-11-29T21:46:47.150Z,-18.45
2022-11-29T21:49:16.072Z,-18.38
2022-11-29T21:51:45.019Z,-18.38
2022-11-29T21:54:13.910Z,-18.39
2022-11-29T21:56:43.085Z,-18.40
2022-11-29T21:59:12.466Z,-18.35
2022-11-29T22:01:42.220Z,-18.31
2022-11-29T22:04:11.492Z,-18.32
2022-11-29T22:06:40.295Z,-18.33
2022-11-29T22:09:10.052Z,-18.29
2022-11-29T22:11:39.180Z,-18.26
2022-11-29T22:14:14.976Z,-18.25
2022-11-29T22:16:54.145Z,-18.25
2022-11-29T22:19:33.152Z,-18.23
2022-11-29T22:22:06.090Z,-18.23
2022-11-29T22:24:37.549Z,-18.22
2022-11-29T22:27:06.739Z,-18.27
2022-11-29T22:29:35.651Z,-18.26
2022-11-29T22:32:04.663Z,-18.27
2022-11-29T22:34:33.684Z,-18.26
2022-11-29T22:37:02.596Z,-18.26
2022-11-29T22:39:31.878Z,-18.29
2022-11-29T22:42:00.849Z,-18.24
2022-11-29T22:44:30.760Z,-18.27
2022-11-29T22:46:59.832Z,-18.22
2022-11-29T22:49:28.980Z,-18.21
2022-11-29T22:51:57.907Z,-18.22
2022-11-29T22:54:26.796Z,-18.20
2022-11-29T22:56:55.708Z,-18.20
2022-11-29T22:59:24.947Z,-18.22
2022-11-29T23:01:55.071Z,-18.17
2022-11-29T23:04:24.365Z,-18.17
2022-11-29T23:06:53.309Z,-18.22
2022-11-29T23:09:22.842Z,-18.21
2022-11-29T23:11:56.763Z,-18.22
2022-11-29T23:14:26.054Z,-18.23
2022-11-29T23:16:55.165Z,-18.35
2022-11-29T23:19:24.282Z,-18.26
2022-11-29T23:21:53.436Z,-18.22
2022-11-29T23:24:22.442Z,-18.22
2022-11-29T23:26:51.505Z,-18.19
2022-11-29T23:29:20.711Z,-18.16
2022-11-29T23:31:50.373Z,-18.15
2022-11-29T23:34:19.437Z,-18.12
2022-11-29T23:36:52.626Z,-18.12
2022-11-29T23:39:22.145Z,-18.16
2022-11-29T23:41:52.122Z,-18.13
2022-11-29T23:44:21.007Z,-18.15
2022-11-29T23:46:49.963Z,-18.13
2022-11-29T23:49:19.119Z,-18.14
2022-11-29T23:51:48.443Z,-18.13
2022-11-29T23:54:17.755Z,-18.17
2022-11-29T23:56:46.573Z,-18.16
2022-11-29T23:59:15.394Z,-18.19
